Huvudsida
METAR-TAF:

METAR-TAF

Flygplatser :

Joensuu flygplats

Joensuu, Finland

latitud: 62-40N, longitud: 029-38E, höjd: 119 m

Aktuellt väderrapport

Denna rapport gjordes för 16 minuter sedan, klockan 18:20 UTC
Vind 2 kt från ost/sydost
Temperatur -4°C
Fuktighet 93%
Tryck 1034 hPa
Sikt: 4600 m
Få moln på en höjd av 500 ft
Mulet på en höjd av 1400 ft
lätta snöbyar

METAR: EFJO 131820Z AUTO 11002KT 4600 -SHSN FEW005 OVC014 M04/M05 Q1034

Tid: 20:36 (18:36 UTC)

Väderprognos

Denna rapport gjordes för 1 timme och 12 minuter sedan, klockan 17:24 UTC
Prognos gäller från 13 kl. 18 UTC till 13 kl. 24 UTC
Vind 2 kt från ost
Sikt 10 km eller mer
Brutna moln på en höjd av 800 ft
Temporärt
från 13 kl. 18 UTC till 13 kl. 21 UTC
Sikt: 4000 m
Spridda moln på en höjd av 600 ft
Brutna moln på en höjd av 2500 ft
lätt snö

TAF: EFJO 131724Z 1318/1324 09002KT 9999 BKN008 TEMPO 1318/1321 4000 -SN SCT006 BKN025

Aktuella väderrapporter och prognoser från 4000 flygplatser (METAR- och TAF-rapporter).

De tillgängliga stationerna syns som gula och röda prickar på kartan.

För musen över prickarna för att se namnen på stationerna.

Klicka sedan för att få väderrapporter och prognoser.

För att ändra kartan: Klicka på de gröna knapparna med ett svart kors på för att zooma in; den gröna knappen med ett streck på för att zooma ut; eller på de gröna pilarna för angränsande kartor.


METAR-TAF: